Thunder radar more information blitzortung!


Rain radar more information rain snow radar


Besuchen Sie unsere anderen Wetter Stationen:

Template documentation
and downloads

And another site


Sie finden unser Wetter-Infos auch auf:

warn

European Weather Network

WeatherCloud

Weather Underground

AWEKAS

HAMweather, WeatherForYou, PWS Weather

wettercom

Neuwetter

Wetter Netzwerk Deutschland



METAR-Meldungen aus der Umgebung

   
EDDW - Bremen
Aktualisierung: 18-01-2019 19:20
Teilweise bewölkt  
Teilweise bewölkt  
   Wind: SW 5.6 km/h
Wind: SW 5.6 km/h
Temperatur: -1°C
Gefühlt: -3°C
Taupunkt: -2°C
Luftfeuchte: 93%
Luftdruck: 1019 hPa
Bewölkt: Teilweise bewölkt
Sichtbarkeit: More than 10 km
Bewölkung: Teilweise bewölkt 2200 ft
EDDW 181820Z 22003KT 9999 SCT022 M01/M02 Q1019 R88/290095 NOSIG
EDDT - Berlin
Aktualisierung: 18-01-2019 19:20
Stark bewölkt  
Stark bewölkt  
   Wind: WSW 14.8 km/h
Wind: WSW 14.8 km/h
Temperatur: 1°C
Gefühlt: -3°C
Taupunkt: -2°C
Luftfeuchte: 81%
Luftdruck: 1018 hPa
Bewölkt: Stark bewölkt
Sichtbarkeit: More than 10 km
Bewölkung: Stark bewölkt 1800 ft
EDDT 181820Z 25008KT 9999 BKN018 01/M02 Q1018 NOSIG
EDDF - Frankfurt
Aktualisierung: 18-01-2019 19:20
Klar  
Klar  
   Wind: variiert 3.7 km/h
Wind: variiert 3.7 km/h
Temperatur: -1°C
Taupunkt: -3°C
Luftfeuchte: 86%
Luftdruck: 1020 hPa
Sichtbarkeit: More than 10 km
Bewölkung: Klar
EDDF 181820Z VRB02KT CAVOK M01/M03 Q1020 NOSIG
EDDM - Mnchen
Aktualisierung: 18-01-2019 19:20
Klar  
Klar  
   Wind: Osten 5.6 km/h
Wind: Osten 5.6 km/h
Temperatur: -2°C
Gefühlt: -4°C
Taupunkt: -3°C
Luftfeuchte: 93%
Luftdruck: 1019 hPa
Sichtbarkeit: More than 10 km
Bewölkung: Klar
EDDM 181820Z 10003KT CAVOK M02/M03 Q1019 NOSIG
EDDH - Hamburg
Aktualisierung: 18-01-2019 19:20
Teilweise bewölkt  
Teilweise bewölkt  
   Wind: WSW 5.6 km/h
Wind: WSW 5.6 km/h
Temperatur: 0°C
Gefühlt: -2°C
Taupunkt: -1°C
Luftfeuchte: 93%
Luftdruck: 1018 hPa
Bewölkt: Teilweise bewölkt
Sichtbarkeit: More than 10 km
Bewölkung: leicht bewölkt 800 ft,
Teilweise bewölkt 1300 ft
EDDH 181820Z 25003KT 210V270 9999 FEW008 SCT013 00/M01 Q1018 R88/610295 TEMPO BKN008
EDDL - Dsseldorf
Aktualisierung: 18-01-2019 19:20
Klar  
Klar  
   Wind: SSO 9.3 km/h
Wind: SSO 9.3 km/h
Temperatur: 0°C
Gefühlt: -3°C
Taupunkt: -3°C
Luftfeuchte: 80%
Luftdruck: 1020 hPa
Sichtbarkeit: More than 10 km
Bewölkung: Klar
EDDL 181820Z 16005KT 130V190 CAVOK M00/M03 Q1020 NOSIG

Script entwickelt von  Saratoga-weather.org Angepasst für das Template von  Weerstation Leuven

Von uns verwendete Ausrüstung:

Wetterstation
Davis VP2

Wetterprogramm
Meteobridge

WetterComputer
Asus WL -330N3G

Davis VP2

Meteobridge

Asus WL -330N3G